Time;durP1;ratioP1;P1;durP2;ratioP2;P2;SDS_P1;SDS_P2;PMS_P1;PMS_P2;Temp;Humidity;BMP_temperature;BMP_pressure;BME280_temperature;BME280_humidity;BME280_pressure;Samples;Min_cycle;Max_cycle;Signal;HPM_P1;HPM_P2
2021/06/19 00:01:07;;;;;;;1999.90;999.90;;;24.80;99.90;;;;;;4975951;28;20629;-65
2021/06/19 00:03:33;;;;;;;1999.90;999.90;;;24.70;99.90;;;;;;4975996;28;20286;-65
2021/06/19 00:05:59;;;;;;;1999.90;999.90;;;24.70;99.90;;;;;;4975575;28;20498;-64
2021/06/19 00:08:24;;;;;;;1999.90;999.90;;;24.60;99.90;;;;;;4975862;28;20175;-64
2021/06/19 00:10:50;;;;;;;1999.90;999.90;;;24.50;99.90;;;;;;4975616;28;20253;-64
2021/06/19 00:13:16;;;;;;;1999.90;999.90;;;24.50;99.90;;;;;;4975654;28;20265;-64
2021/06/19 00:15:42;;;;;;;1999.90;999.90;;;24.50;99.90;;;;;;4975380;28;21015;-65
2021/06/19 00:18:08;;;;;;;1999.90;999.90;;;24.40;99.90;;;;;;4975763;28;20432;-65
2021/06/19 00:20:34;;;;;;;1999.90;999.90;;;24.30;99.90;;;;;;4975480;28;20444;-63
2021/06/19 00:22:59;;;;;;;1999.90;999.90;;;24.20;99.90;;;;;;4975441;28;20175;-66
2021/06/19 00:25:28;;;;;;;1999.90;999.90;;;24.30;99.90;;;;;;4975084;28;20253;-65
2021/06/19 00:27:54;;;;;;;1999.90;999.90;;;24.20;99.90;;;;;;4975366;28;20178;-66
2021/06/19 00:30:20;;;;;;;1999.90;999.90;;;24.20;99.90;;;;;;4975381;28;20415;-65
2021/06/19 00:32:46;;;;;;;1999.90;999.90;;;24.20;99.90;;;;;;4975287;28;20533;-65
2021/06/19 00:35:12;;;;;;;1999.90;999.90;;;24.20;99.90;;;;;;4975021;28;20490;-66
2021/06/19 00:37:38;;;;;;;1999.90;999.90;;;24.20;99.90;;;;;;4975354;28;20423;-66
2021/06/19 00:40:10;;;;;;;1999.90;999.90;;;24.20;99.90;;;;;;4975215;28;20408;-65
2021/06/19 00:42:36;;;;;;;1999.90;999.90;;;24.10;99.90;;;;;;4975203;28;20595;-65
2021/06/19 00:45:02;;;;;;;1999.90;999.90;;;24.10;99.90;;;;;;4974887;28;20392;-65
2021/06/19 00:47:28;;;;;;;1999.90;999.90;;;24.00;99.90;;;;;;4975215;28;20388;-65
2021/06/19 00:49:54;;;;;;;1999.90;999.90;;;24.00;99.90;;;;;;4975048;28;20411;-66
2021/06/19 00:52:20;;;;;;;1999.90;999.90;;;23.90;99.90;;;;;;4973596;28;20712;-65
2021/06/19 00:54:47;;;;;;;1999.90;999.90;;;23.80;99.90;;;;;;4974695;28;20440;-65
2021/06/19 00:57:13;;;;;;;1999.90;999.90;;;23.80;99.90;;;;;;4974892;28;20621;-65
2021/06/19 00:59:41;;;;;;;1999.90;999.90;;;23.80;99.90;;;;;;4974907;28;20522;-65
2021/06/19 01:02:07;;;;;;;1999.90;999.90;;;23.70;99.90;;;;;;4974650;28;20466;-65
2021/06/19 01:04:32;;;;;;;1999.90;999.90;;;23.70;99.90;;;;;;4973599;28;20766;-65
2021/06/19 01:07:01;;;;;;;1999.90;999.90;;;23.70;99.90;;;;;;4974771;28;20408;-66
2021/06/19 01:09:27;;;;;;;1999.90;999.90;;;23.70;99.90;;;;;;4974682;28;20310;-65
2021/06/19 01:11:53;;;;;;;1999.90;999.90;;;23.60;99.90;;;;;;4974765;28;20509;-65
2021/06/19 01:14:19;;;;;;;1999.90;999.90;;;23.60;99.90;;;;;;4974313;28;20248;-65
2021/06/19 01:16:47;;;;;;;1999.90;999.90;;;23.60;99.90;;;;;;4974646;28;20209;-66
2021/06/19 01:19:13;;;;;;;1999.90;999.90;;;23.40;99.90;;;;;;4974394;28;20432;-65
2021/06/19 01:21:38;;;;;;;1999.90;999.90;;;23.40;99.90;;;;;;4974417;28;20446;-65
2021/06/19 01:24:04;;;;;;;1999.90;999.90;;;23.40;99.90;;;;;;4974063;28;20233;-65
2021/06/19 01:26:32;;;;;;;1999.90;999.90;;;23.40;99.90;;;;;;4974244;28;20210;-65
2021/06/19 01:28:59;;;;;;;1999.90;999.90;;;23.40;99.90;;;;;;4974309;28;20421;-66
2021/06/19 01:31:27;;;;;;;1999.90;999.90;;;23.40;99.90;;;;;;4974020;28;20443;-65
2021/06/19 01:33:53;;;;;;;1999.90;999.90;;;23.30;99.90;;;;;;4973951;28;20948;-62
2021/06/19 01:36:21;;;;;;;1999.90;999.90;;;23.20;99.90;;;;;;4974217;28;20379;-65
2021/06/19 01:38:49;;;;;;;1999.90;999.90;;;23.30;99.90;;;;;;4974117;28;20392;-65
2021/06/19 01:41:20;;;;;;;1999.90;999.90;;;23.30;99.90;;;;;;4974012;28;20455;-66
2021/06/19 01:43:47;;;;;;;1999.90;999.90;;;23.30;99.90;;;;;;4973917;28;20509;-65
2021/06/19 01:46:15;;;;;;;1999.90;999.90;;;23.20;99.90;;;;;;4973870;28;20421;-65
2021/06/19 01:48:41;;;;;;;1999.90;999.90;;;23.20;99.90;;;;;;4973970;28;20400;-65
2021/06/19 01:51:11;;;;;;;1999.90;999.90;;;23.10;99.90;;;;;;4973702;28;20852;-64
2021/06/19 01:53:44;;;;;;;1999.90;999.90;;;23.10;99.90;;;;;;4973800;28;20409;-65
2021/06/19 01:56:11;;;;;;;1999.90;999.90;;;23.10;99.90;;;;;;4973835;28;20827;-65
2021/06/19 01:58:37;;;;;;;1999.90;999.90;;;23.00;99.90;;;;;;4973830;28;20455;-65
2021/06/19 02:01:09;;;;;;;1999.90;999.90;;;23.10;99.90;;;;;;4973721;28;20519;-64
2021/06/19 02:03:35;;;;;;;1999.90;999.90;;;23.10;99.90;;;;;;4973573;28;20252;-65
2021/06/19 02:06:01;;;;;;;1999.90;999.90;;;23.10;99.90;;;;;;4973483;28;20563;-65
2021/06/19 02:08:27;;;;;;;1999.90;999.90;;;23.00;99.90;;;;;;4973662;28;20643;-64
2021/06/19 02:10:53;;;;;;;1999.90;999.90;;;22.90;99.90;;;;;;4973563;28;20447;-65
2021/06/19 02:13:19;;;;;;;1999.90;999.90;;;22.90;99.90;;;;;;4973555;28;20605;-64
2021/06/19 02:15:47;;;;;;;1999.90;999.90;;;22.90;99.90;;;;;;4973033;28;20269;-64
2021/06/19 02:18:14;;;;;;;1999.90;999.90;;;22.80;99.90;;;;;;4973432;28;20188;-64
2021/06/19 02:20:40;;;;;;;1999.90;999.90;;;22.80;99.90;;;;;;4973363;28;20470;-65
2021/06/19 02:23:06;;;;;;;1999.90;999.90;;;22.80;99.90;;;;;;4973407;28;20416;-65
2021/06/19 02:25:32;;;;;;;1999.90;999.90;;;22.70;99.90;;;;;;4973163;28;20188;-64
2021/06/19 02:28:00;;;;;;;1999.90;999.90;;;22.70;99.90;;;;;;4973376;28;20636;-65
2021/06/19 02:30:47;;;;;;;1999.90;999.90;;;22.60;99.90;;;;;;4973175;28;20912;-64
2021/06/19 02:33:14;;;;;;;1999.90;999.90;;;22.50;99.90;;;;;;4972582;28;20530;-65
2021/06/19 02:35:43;;;;;;;1999.90;999.90;;;22.50;99.90;;;;;;4972878;28;20922;-65
2021/06/19 02:38:09;;;;;;;1999.90;999.90;;;22.60;99.90;;;;;;4973254;28;20391;-65
2021/06/19 02:40:38;;;;;;;1999.90;999.90;;;22.60;99.90;;;;;;4973146;28;20399;-64
2021/06/19 02:43:04;;;;;;;1999.90;999.90;;;22.50;99.90;;;;;;4973218;28;20460;-65
2021/06/19 02:45:30;;;;;;;1999.90;999.90;;;22.50;99.90;;;;;;4972863;28;20960;-64
2021/06/19 02:47:57;;;;;;;1999.90;999.90;;;22.50;99.90;;;;;;4973056;28;20181;-63
2021/06/19 02:50:29;;;;;;;1999.90;999.90;;;22.50;99.90;;;;;;4973244;28;20395;-66
2021/06/19 02:52:57;;;;;;;1999.90;999.90;;;22.40;99.90;;;;;;4973169;28;20849;-65
2021/06/19 02:55:26;;;;;;;1999.90;999.90;;;22.40;99.90;;;;;;4972833;28;20761;-66
2021/06/19 02:57:51;;;;;;;1999.90;999.90;;;22.30;99.90;;;;;;4973016;28;20492;-65
2021/06/19 03:00:19;;;;;;;1999.90;999.90;;;22.30;99.90;;;;;;4973098;28;20508;-64
2021/06/19 03:02:46;;;;;;;1999.90;999.90;;;22.30;99.90;;;;;;4973045;28;20545;-65
2021/06/19 03:05:14;;;;;;;1999.90;999.90;;;22.20;99.90;;;;;;4972753;28;20790;-66
2021/06/19 03:07:40;;;;;;;1999.90;999.90;;;22.10;99.90;;;;;;4973092;28;20383;-64
2021/06/19 03:10:08;;;;;;;1999.90;999.90;;;22.10;99.90;;;;;;4972912;28;20424;-63
2021/06/19 03:12:34;;;;;;;1999.90;999.90;;;22.10;99.90;;;;;;4972792;28;20314;-64
2021/06/19 03:15:00;;;;;;;1999.90;999.90;;;22.10;99.90;;;;;;4972654;28;20440;-63
2021/06/19 03:17:25;;;;;;;1999.90;999.90;;;22.00;99.90;;;;;;4972915;28;20443;-64
2021/06/19 03:19:51;;;;;;;1999.90;999.90;;;22.00;99.90;;;;;;4972940;28;20182;-65
2021/06/19 03:22:17;;;;;;;1999.90;999.90;;;22.00;99.90;;;;;;4972784;28;20201;-65
2021/06/19 03:24:44;;;;;;;1999.90;999.90;;;22.00;99.90;;;;;;4972635;28;20200;-65
2021/06/19 03:27:15;;;;;;;1999.90;999.90;;;21.80;99.90;;;;;;4974057;28;20791;-64
2021/06/19 03:29:41;;;;;;;1999.90;999.90;;;21.80;99.90;;;;;;4976693;28;20419;-65
2021/06/19 03:32:07;;;;;;;1999.90;999.90;;;21.80;99.90;;;;;;4976235;28;20550;-64
2021/06/19 03:34:36;;;;;;;1999.90;999.90;;;21.80;99.90;;;;;;4976151;28;20757;-65
2021/06/19 03:37:02;;;;;;;1999.90;999.90;;;21.80;99.90;;;;;;4976876;28;20414;-62
2021/06/19 03:39:29;;;;;;;1999.90;999.90;;;21.80;99.90;;;;;;4976262;28;20378;-62
2021/06/19 03:41:56;;;;;;;1999.90;999.90;;;21.70;99.90;;;;;;4976222;28;20428;-63
2021/06/19 03:44:25;;;;;;;1999.90;999.90;;;21.70;99.90;;;;;;4976094;28;20470;-62
2021/06/19 03:46:52;;;;;;;1999.90;999.90;;;21.70;99.90;;;;;;4976209;28;20507;-62
2021/06/19 03:49:18;;;;;;;1999.90;999.90;;;21.70;99.90;;;;;;4976145;28;20421;-63
2021/06/19 03:51:45;;;;;;;1999.90;999.90;;;21.70;99.90;;;;;;4975960;28;20463;-62
2021/06/19 03:54:11;;;;;;;1999.90;999.90;;;21.70;99.90;;;;;;4975833;28;20393;-62
2021/06/19 03:56:36;;;;;;;1999.90;999.90;;;21.70;99.90;;;;;;4975998;28;20411;-62
2021/06/19 03:59:02;;;;;;;1999.90;999.90;;;21.60;99.90;;;;;;4976110;28;20175;-62
2021/06/19 04:01:28;;;;;;;1999.90;999.90;;;21.60;99.90;;;;;;4975859;28;20204;-62
2021/06/19 04:03:54;;;;;;;1999.90;999.90;;;21.50;99.90;;;;;;4975600;28;20487;-62
2021/06/19 04:06:19;;;;;;;1999.90;999.90;;;21.50;99.90;;;;;;4975761;28;20179;-63
2021/06/19 04:08:45;;;;;;;1999.90;999.90;;;21.40;99.90;;;;;;4975936;28;20667;-62
2021/06/19 04:11:13;;;;;;;1999.90;999.90;;;21.40;99.90;;;;;;4975670;28;20203;-62
2021/06/19 04:13:42;;;;;;;1999.90;999.90;;;21.50;99.90;;;;;;4975750;28;20179;-62
2021/06/19 04:16:11;;;;;;;1999.90;999.90;;;21.50;99.90;;;;;;4975501;28;20402;-63
2021/06/19 04:18:37;;;;;;;1999.90;999.90;;;21.50;99.90;;;;;;4975637;28;20471;-62
2021/06/19 04:21:06;;;;;;;1999.90;999.90;;;21.40;99.90;;;;;;4975525;28;20566;-62
2021/06/19 04:23:33;;;;;;;1999.90;999.90;;;21.50;99.90;;;;;;4975723;28;20782;-62
2021/06/19 04:25:59;;;;;;;1999.90;999.90;;;21.50;99.90;;;;;;4975278;28;20411;-63
2021/06/19 04:28:25;;;;;;;1999.90;999.90;;;21.50;99.90;;;;;;4975496;28;20380;-63
2021/06/19 04:30:50;;;;;;;1999.90;999.90;;;21.60;99.90;;;;;;4975206;28;20535;-62
2021/06/19 04:33:16;;;;;;;1999.90;999.90;;;21.60;99.90;;;;;;4975323;28;20216;-63
2021/06/19 04:35:42;;;;;;;1999.90;999.90;;;21.60;99.90;;;;;;4975016;28;20425;-64
2021/06/19 04:38:08;;;;;;;1999.90;999.90;;;21.70;99.90;;;;;;4975260;28;20173;-62
2021/06/19 04:43:03;;;;;;;1999.90;999.90;;;21.70;99.90;;;;;;4975200;28;20172;-62
2021/06/19 04:45:29;;;;;;;1999.90;999.90;;;21.70;99.90;;;;;;4974833;28;20208;-62
2021/06/19 04:47:56;;;;;;;1999.90;999.90;;;21.60;99.90;;;;;;4975121;28;20412;-62
2021/06/19 04:50:22;;;;;;;1999.90;999.90;;;21.60;99.90;;;;;;4975016;28;20514;-62
2021/06/19 04:52:48;;;;;;;1999.90;999.90;;;21.70;99.90;;;;;;4974848;28;20515;-62
2021/06/19 04:55:16;;;;;;;1999.90;999.90;;;21.80;99.90;;;;;;4974861;28;20186;-62
2021/06/19 04:57:43;;;;;;;1999.90;999.90;;;21.80;99.90;;;;;;4974982;28;20899;-63
2021/06/19 05:00:11;;;;;;;1999.90;999.90;;;21.80;99.90;;;;;;4974833;28;20409;-64
2021/06/19 05:02:37;;;;;;;1999.90;999.90;;;21.80;99.90;;;;;;4974703;28;20436;-64
2021/06/19 05:05:03;;;;;;;1999.90;999.90;;;21.80;99.90;;;;;;4974484;28;20583;-62
2021/06/19 05:07:28;;;;;;;1999.90;999.90;;;21.90;99.90;;;;;;4974754;28;20412;-59
2021/06/19 05:09:54;;;;;;;1999.90;999.90;;;22.00;99.90;;;;;;4974845;28;21043;-62
2021/06/19 05:12:20;;;;;;;1999.90;999.90;;;22.00;99.90;;;;;;4974508;28;20693;-62
2021/06/19 05:14:45;;;;;;;1999.90;999.90;;;22.00;99.90;;;;;;4974371;28;20183;-62
2021/06/19 05:17:11;;;;;;;1999.90;999.90;;;21.90;99.90;;;;;;4974594;28;20252;-64
2021/06/19 05:19:36;;;;;;;1999.90;999.90;;;21.90;99.90;;;;;;4974494;28;20670;-62
2021/06/19 05:22:02;;;;;;;1999.90;999.90;;;21.90;99.90;;;;;;4974447;28;20198;-63
2021/06/19 05:24:28;;;;;;;1999.90;999.90;;;22.00;99.90;;;;;;4974449;28;20226;-62
2021/06/19 05:26:54;;;;;;;1999.90;999.90;;;22.00;99.90;;;;;;4974553;28;20170;-63
2021/06/19 05:29:20;;;;;;;1999.90;999.90;;;21.90;99.90;;;;;;4974349;28;20200;-63
2021/06/19 05:31:45;;;;;;;1999.90;999.90;;;21.90;99.90;;;;;;4973938;28;20846;-63
2021/06/19 05:34:11;;;;;;;1999.90;999.90;;;21.80;99.90;;;;;;4974000;28;20525;-62
2021/06/19 05:36:36;;;;;;;1999.90;999.90;;;21.90;99.90;;;;;;4974182;28;20259;-62
2021/06/19 05:39:03;;;;;;;1999.90;999.90;;;22.00;99.90;;;;;;4974147;28;20173;-62
2021/06/19 05:41:29;;;;;;;1999.90;999.90;;;22.00;99.90;;;;;;4974070;28;20188;-63
2021/06/19 05:43:55;;;;;;;1999.90;999.90;;;21.90;99.90;;;;;;4973745;28;20758;-62
2021/06/19 05:46:20;;;;;;;1999.90;999.90;;;21.90;99.90;;;;;;4973973;28;20409;-62
2021/06/19 05:48:46;;;;;;;1999.90;999.90;;;22.00;99.90;;;;;;4973964;28;20240;-62
2021/06/19 05:51:11;;;;;;;1999.90;999.90;;;22.00;99.90;;;;;;4973345;28;20193;-64
2021/06/19 05:53:37;;;;;;;1999.90;999.90;;;22.00;99.90;;;;;;4973873;28;20181;-62
2021/06/19 05:56:03;;;;;;;1999.90;999.90;;;22.10;99.90;;;;;;4973967;28;20293;-62
2021/06/19 05:58:28;;;;;;;1999.90;999.90;;;22.10;99.90;;;;;;4973749;28;20167;-62
2021/06/19 06:00:54;;;;;;;1999.90;999.90;;;22.20;99.90;;;;;;4973640;28;20204;-63
2021/06/19 06:03:20;;;;;;;1999.90;999.90;;;22.20;99.90;;;;;;4973745;28;20184;-62
2021/06/19 06:05:45;;;;;;;1999.90;999.90;;;22.20;99.90;;;;;;4973378;28;20271;-62
2021/06/19 06:08:11;;;;;;;1999.90;999.90;;;22.20;99.90;;;;;;4973730;28;20178;-63
2021/06/19 06:10:37;;;;;;;1999.90;999.90;;;22.20;99.90;;;;;;4973524;28;20185;-63
2021/06/19 06:13:04;;;;;;;1999.90;999.90;;;22.30;99.90;;;;;;4973531;28;20223;-63
2021/06/19 06:15:30;;;;;;;1999.90;999.90;;;22.40;99.90;;;;;;4973285;28;20484;-63
2021/06/19 06:17:55;;;;;;;1999.90;999.90;;;22.40;99.90;;;;;;4973508;28;20872;-62
2021/06/19 06:20:21;;;;;;;1999.90;999.90;;;22.40;99.90;;;;;;4973431;28;20165;-62
2021/06/19 06:22:47;;;;;;;1999.90;999.90;;;22.40;99.90;;;;;;4973436;28;20201;-65
2021/06/19 06:25:13;;;;;;;1999.90;999.90;;;22.30;99.90;;;;;;4973133;28;20181;-64
2021/06/19 06:27:39;;;;;;;1999.90;999.90;;;22.40;99.90;;;;;;4973219;28;20413;-64
2021/06/19 06:30:07;;;;;;;1999.90;999.90;;;22.40;99.90;;;;;;4973281;28;20414;-64
2021/06/19 06:32:34;;;;;;;1999.90;999.90;;;22.60;99.90;;;;;;4973030;28;20511;-64
2021/06/19 06:35:00;;;;;;;1999.90;999.90;;;22.60;99.90;;;;;;4973191;28;20451;-63
2021/06/19 06:37:26;;;;;;;1999.90;999.90;;;22.50;99.90;;;;;;4973339;28;20409;-63
2021/06/19 06:39:52;;;;;;;1999.90;999.90;;;22.50;99.90;;;;;;4973300;28;20451;-63
2021/06/19 06:42:17;;;;;;;1999.90;999.90;;;22.60;99.90;;;;;;4972987;28;20485;-63
2021/06/19 06:44:43;;;;;;;1999.90;999.90;;;22.70;99.90;;;;;;4972815;28;20181;-64
2021/06/19 06:47:10;;;;;;;1999.90;999.90;;;22.70;99.90;;;;;;4973180;28;20194;-63
2021/06/19 06:49:36;;;;;;;1999.90;999.90;;;22.70;99.90;;;;;;4973296;28;20193;-64
2021/06/19 06:52:02;;;;;;;1999.90;999.90;;;22.80;99.90;;;;;;4972935;28;20474;-64
2021/06/19 06:54:28;;;;;;;1999.90;999.90;;;22.70;99.90;;;;;;4972829;28;20174;-63
2021/06/19 06:56:55;;;;;;;1999.90;999.90;;;22.90;99.90;;;;;;4973079;28;20491;-64
2021/06/19 06:59:21;;;;;;;1999.90;999.90;;;22.90;99.90;;;;;;4973061;28;20539;-63
2021/06/19 07:01:48;;;;;;;1999.90;999.90;;;22.90;99.90;;;;;;4973440;28;20433;-63
2021/06/19 07:04:13;;;;;;;1999.90;999.90;;;23.00;99.90;;;;;;4976730;28;20427;-64
2021/06/19 07:06:39;;;;;;;1999.90;999.90;;;23.10;99.90;;;;;;4976967;28;20412;-63
2021/06/19 07:09:04;;;;;;;1999.90;999.90;;;23.20;99.90;;;;;;4977070;28;20174;-63
2021/06/19 07:11:30;;;;;;;1999.90;999.90;;;23.30;99.90;;;;;;4976702;28;20296;-63
2021/06/19 07:13:56;;;;;;;1999.90;999.90;;;23.30;99.90;;;;;;4976518;28;20257;-62
2021/06/19 07:16:22;;;;;;;1999.90;999.90;;;23.40;99.90;;;;;;4976847;28;20205;-65
2021/06/19 07:18:47;;;;;;;1999.90;999.90;;;23.40;99.90;;;;;;4976705;28;20236;-65
2021/06/19 07:21:15;;;;;;;1999.90;999.90;;;23.50;99.90;;;;;;4976715;28;20479;-66
2021/06/19 07:23:40;;;;;;;1999.90;999.90;;;23.70;99.90;;;;;;4976561;28;20692;-63
2021/06/19 07:26:06;;;;;;;1999.90;999.90;;;23.70;99.90;;;;;;4976372;28;20493;-63
2021/06/19 07:28:32;;;;;;;1999.90;999.90;;;23.70;99.90;;;;;;4976484;28;20173;-64
2021/06/19 07:30:57;;;;;;;1999.90;999.90;;;23.70;99.90;;;;;;4976302;28;20216;-65
2021/06/19 07:33:23;;;;;;;1999.90;999.90;;;23.70;99.90;;;;;;4976461;28;20679;-65
2021/06/19 07:35:48;;;;;;;1999.90;999.90;;;23.80;99.90;;;;;;4976155;28;20185;-66
2021/06/19 07:38:14;;;;;;;1999.90;999.90;;;23.90;99.90;;;;;;4976568;28;20554;-64
2021/06/19 07:40:40;;;;;;;1999.90;999.90;;;23.90;99.90;;;;;;4976223;28;20173;-65
2021/06/19 07:43:05;;;;;;;1999.90;999.90;;;23.90;99.90;;;;;;4975005;28;20674;-65
2021/06/19 07:45:31;;;;;;;1999.90;999.90;;;24.00;99.90;;;;;;4976006;28;20183;-65
2021/06/19 07:47:56;;;;;;;1999.90;999.90;;;24.20;99.90;;;;;;4976202;28;20199;-64
2021/06/19 07:50:22;;;;;;;1999.90;999.90;;;24.30;99.90;;;;;;4976207;28;20217;-65
2021/06/19 07:52:48;;;;;;;1999.90;999.90;;;24.20;99.90;;;;;;4975984;28;20213;-66
2021/06/19 07:55:14;;;;;;;1999.90;999.90;;;24.10;99.90;;;;;;4975787;28;20640;-66
2021/06/19 07:57:39;;;;;;;1999.90;999.90;;;24.10;99.90;;;;;;4976030;28;20651;-65
2021/06/19 08:00:06;;;;;;;1999.90;999.90;;;24.10;99.90;;;;;;4976056;28;20414;-65
2021/06/19 08:02:32;;;;;;;1999.90;999.90;;;24.20;99.90;;;;;;4976037;28;20400;-66
2021/06/19 08:04:58;;;;;;;1999.90;999.90;;;24.40;99.90;;;;;;4975658;28;20392;-65
2021/06/19 08:07:23;;;;;;;1999.90;999.90;;;24.40;99.90;;;;;;4975916;28;20205;-64
2021/06/19 08:09:49;;;;;;;1999.90;999.90;;;24.40;99.90;;;;;;4975844;28;20186;-65
2021/06/19 08:12:15;;;;;;;1999.90;999.90;;;24.60;99.90;;;;;;4975524;28;20206;-62
2021/06/19 08:14:40;;;;;;;1999.90;999.90;;;24.70;99.90;;;;;;4975208;28;20270;-62
2021/06/19 08:17:17;;;;;;;1999.90;999.90;;;24.80;99.90;;;;;;4975938;28;20178;-66
2021/06/19 08:19:45;;;;;;;1999.90;999.90;;;24.90;99.90;;;;;;4975811;28;20166;-65
2021/06/19 08:22:11;;;;;;;1999.90;999.90;;;25.00;99.90;;;;;;4975591;28;20966;-65
2021/06/19 08:24:37;;;;;;;1999.90;999.90;;;25.10;99.90;;;;;;4975266;28;20409;-63
2021/06/19 08:27:04;;;;;;;1999.90;999.90;;;25.10;99.90;;;;;;4975698;28;20417;-65
2021/06/19 08:29:29;;;;;;;1999.90;999.90;;;25.30;99.90;;;;;;4975599;28;20640;-64
2021/06/19 08:31:55;;;;;;;1999.90;999.90;;;25.30;99.90;;;;;;4975399;28;20536;-66
2021/06/19 08:34:21;;;;;;;1999.90;999.90;;;25.40;99.90;;;;;;4975332;28;20253;-65
2021/06/19 08:36:46;;;;;;;1999.90;999.90;;;25.50;99.90;;;;;;4975564;28;20171;-66
2021/06/19 08:39:12;;;;;;;1999.90;999.90;;;25.70;99.90;;;;;;4975451;28;20186;-65
2021/06/19 08:41:38;;;;;;;1999.90;999.90;;;25.70;99.90;;;;;;4975591;28;20548;-63
2021/06/19 08:44:04;;;;;;;1999.90;999.90;;;25.70;99.90;;;;;;4975061;28;20264;-66
2021/06/19 08:46:30;;;;;;;1999.90;999.90;;;25.70;99.90;;;;;;4975270;28;20179;-65
2021/06/19 08:48:57;;;;;;;1999.90;999.90;;;25.80;99.90;;;;;;4975152;28;20418;-64
2021/06/19 08:51:26;;;;;;;1999.90;999.90;;;25.90;99.90;;;;;;4975102;28;20438;-65
2021/06/19 08:53:52;;;;;;;1999.90;999.90;;;25.80;99.90;;;;;;4974687;28;20384;-65
2021/06/19 08:56:20;;;;;;;1999.90;999.90;;;25.80;99.90;;;;;;4975034;28;20426;-65
2021/06/19 08:58:46;;;;;;;1999.90;999.90;;;25.90;99.90;;;;;;4974993;28;20273;-65
2021/06/19 09:01:12;;;;;;;1999.90;999.90;;;25.90;99.90;;;;;;4973786;28;20521;-66
2021/06/19 09:03:38;;;;;;;1999.90;999.90;;;26.00;99.90;;;;;;4975248;28;20380;-66
2021/06/19 09:06:21;;;;;;;1999.90;999.90;;;25.90;99.90;;;;;;4975118;28;20420;-64
2021/06/19 09:09:08;;;;;;;1999.90;999.90;;;26.00;99.90;;;;;;4975020;28;20435;-64
2021/06/19 09:11:39;;;;;;;1999.90;999.90;;;26.10;99.90;;;;;;4974255;28;20877;-65
2021/06/19 09:14:06;;;;;;;1999.90;999.90;;;26.30;99.90;;;;;;4974012;28;20385;-66
2021/06/19 09:16:33;;;;;;;1999.90;999.90;;;26.50;99.90;;;;;;4974334;28;20904;-65
2021/06/19 09:18:59;;;;;;;1999.90;999.90;;;26.60;99.90;;;;;;4974135;28;20433;-65
2021/06/19 09:21:33;;;;;;;1999.90;999.90;;;26.80;99.90;;;;;;4973913;28;20404;-65
2021/06/19 09:23:59;;;;;;;1999.90;999.90;;;26.90;99.90;;;;;;4973850;28;20618;-65
2021/06/19 09:26:32;;;;;;;1999.90;999.90;;;27.10;99.90;;;;;;4973542;28;20388;-65
2021/06/19 09:29:11;;;;;;;1999.90;999.90;;;27.00;99.90;;;;;;4973981;28;20435;-64
2021/06/19 09:31:49;;;;;;;1999.90;999.90;;;26.80;99.90;;;;;;4973690;28;20974;-65
2021/06/19 09:34:23;;;;;;;1999.90;999.90;;;27.00;99.90;;;;;;4973288;28;20420;-65
2021/06/19 09:36:49;;;;;;;1999.90;999.90;;;27.20;99.90;;;;;;5017286;23;20504;-64
2021/06/19 09:39:17;;;;;;;1999.90;999.90;;;27.40;99.90;;;;;;4991988;28;20900;-63
2021/06/19 09:41:48;;;;;;;1999.90;999.90;;;27.30;99.90;;;;;;4992125;28;20885;-65
2021/06/19 09:44:15;;;;;;;1999.90;999.90;;;27.30;99.90;;;;;;4991100;28;20467;-64
2021/06/19 09:46:41;;;;;;;1999.90;999.90;;;27.40;99.90;;;;;;4991820;28;20959;-64
2021/06/19 09:49:12;;;;;;;1999.90;999.90;;;27.60;99.90;;;;;;4991594;28;20406;-63
2021/06/19 09:51:44;;;;;;;1999.90;999.90;;;27.80;99.90;;;;;;4990929;28;20444;-63
2021/06/19 09:54:10;;;;;;;1999.90;999.90;;;28.00;99.90;;;;;;4989480;28;20657;-64
2021/06/19 09:56:46;;;;;;;1999.90;999.90;;;28.10;99.90;;;;;;4990977;28;20408;-65
2021/06/19 09:59:25;;;;;;;1999.90;999.90;;;28.30;99.90;;;;;;4990838;28;20219;-64
2021/06/19 10:01:52;;;;;;;1999.90;999.90;;;28.40;99.90;;;;;;4991511;28;20385;-63
2021/06/19 10:04:22;;;;;;;1999.90;999.90;;;28.30;99.90;;;;;;4991100;28;20789;-63
2021/06/19 10:06:48;;;;;;;1999.90;999.90;;;28.30;99.90;;;;;;4990586;28;20433;-65
2021/06/19 10:09:14;;;;;;;1999.90;999.90;;;28.40;99.90;;;;;;4991050;28;20390;-64
2021/06/19 10:11:42;;;;;;;1999.90;999.90;;;28.30;99.90;;;;;;4991133;28;20444;-64
2021/06/19 10:14:14;;;;;;;1999.90;999.90;;;28.30;99.90;;;;;;4990526;28;20473;-63
2021/06/19 10:16:41;;;;;;;1999.90;999.90;;;28.40;99.90;;;;;;4991164;28;20425;-63
2021/06/19 10:19:08;;;;;;;1999.90;999.90;;;28.40;99.90;;;;;;4990948;28;20429;-64
2021/06/19 10:21:34;;;;;;;1999.90;999.90;;;28.50;99.90;;;;;;4990511;28;20620;-63
2021/06/19 10:24:00;;;;;;;1999.90;999.90;;;28.30;99.90;;;;;;4990612;28;20409;-65
2021/06/19 10:26:26;;;;;;;1999.90;999.90;;;28.50;99.90;;;;;;4991033;28;20459;-63
2021/06/19 10:29:02;;;;;;;1999.90;999.90;;;28.80;99.90;;;;;;4990595;28;20646;-64
2021/06/19 10:31:30;;;;;;;1999.90;999.90;;;29.00;99.90;;;;;;4990960;28;20650;-63
2021/06/19 10:33:55;;;;;;;1999.90;999.90;;;29.20;99.90;;;;;;4990501;28;20405;-63
2021/06/19 10:36:36;;;;;;;1999.90;999.90;;;29.00;99.90;;;;;;4990263;28;20451;-64
2021/06/19 10:39:02;;;;;;;1999.90;999.90;;;29.00;99.90;;;;;;4990886;28;20183;-64
2021/06/19 10:41:51;;;;;;;1999.90;999.90;;;29.30;99.90;;;;;;4990632;28;20738;-64
2021/06/19 10:44:52;;;;;;;1999.90;999.90;;;29.50;99.90;;;;;;4989843;28;20204;-64
2021/06/19 10:47:20;;;;;;;1999.90;999.90;;;29.70;99.90;;;;;;4990745;28;20757;-64
2021/06/19 10:49:47;;;;;;;1999.90;999.90;;;30.00;99.90;;;;;;4990580;28;20408;-64
2021/06/19 10:52:26;;;;;;;1999.90;999.90;;;29.80;99.90;;;;;;4990331;28;20456;-63
2021/06/19 10:55:11;;;;;;;1999.90;999.90;;;29.50;99.90;;;;;;4990360;28;20411;-64
2021/06/19 10:57:51;;;;;;;1999.90;999.90;;;29.50;99.90;;;;;;4990472;28;20429;-64
2021/06/19 11:00:27;;;;;;;1999.90;999.90;;;29.40;99.90;;;;;;4989956;28;20451;-65
2021/06/19 11:02:54;;;;;;;1999.90;999.90;;;29.50;99.90;;;;;;4990475;28;20416;-64
2021/06/19 11:05:42;;;;;;;1999.90;999.90;;;29.80;99.90;;;;;;4989916;28;20452;-63
2021/06/19 11:08:15;;;;;;;1999.90;999.90;;;30.20;99.90;;;;;;4990792;28;20836;-64
2021/06/19 11:10:50;;;;;;;1999.90;999.90;;;30.50;99.90;;;;;;4990501;28;20416;-63
2021/06/19 11:13:27;;;;;;;1999.90;999.90;;;31.10;99.90;;;;;;4990241;28;20984;-65
2021/06/19 11:15:54;;;;;;;1999.90;999.90;;;31.70;99.90;;;;;;4990416;28;20408;-63
2021/06/19 11:18:48;;;;;;;1999.90;999.90;;;31.90;99.90;;;;;;4990561;28;20986;-65
2021/06/19 11:21:18;;;;;;;1999.90;999.90;;;32.10;99.90;;;;;;4989494;28;20432;-63
2021/06/19 11:24:02;;;;;;;1999.90;999.90;;;32.20;99.90;;;;;;4989918;28;20413;-64
2021/06/19 11:26:57;;;;;;;1999.90;999.90;;;32.30;99.90;;;;;;4990307;28;20995;-65
2021/06/19 11:29:35;;;;;;;1999.90;999.90;;;32.40;99.90;;;;;;4990149;28;20436;-63
2021/06/19 11:32:21;;;;;;;1999.90;999.90;;;32.80;99.90;;;;;;4989981;28;20464;-64
2021/06/19 11:34:47;;;;;;;1999.90;999.90;;;32.30;99.90;;;;;;4989603;28;20956;-62
2021/06/19 11:37:12;;;;;;;1999.90;999.90;;;32.40;99.90;;;;;;4989001;28;20953;-64
2021/06/19 11:39:38;;;;;;;1999.90;999.90;;;32.70;99.90;;;;;;4989692;28;20174;-65
2021/06/19 11:42:04;;;;;;;1999.90;999.90;;;32.40;99.90;;;;;;4989841;28;20571;-63
2021/06/19 11:44:36;;;;;;;1999.90;999.90;;;32.20;99.90;;;;;;4990016;28;20878;-64
2021/06/19 11:47:05;;;;;;;1999.90;999.90;;;32.60;99.90;;;;;;4990319;28;20432;-63
2021/06/19 11:49:33;;;;;;;1999.90;999.90;;;32.80;99.90;;;;;;4992475;28;20408;-64
2021/06/19 11:52:00;;;;;;;1999.90;999.90;;;33.00;99.90;;;;;;4993644;28;20480;-63
2021/06/19 11:54:26;;;;;;;1999.90;999.90;;;33.20;99.90;;;;;;4993491;28;20416;-64
2021/06/19 11:56:54;;;;;;;1999.90;999.90;;;33.40;99.90;;;;;;4993482;28;20852;-64
2021/06/19 11:59:20;;;;;;;1999.90;999.90;;;33.10;99.90;;;;;;4993556;28;20528;-64
2021/06/19 12:01:48;;;;;;;1999.90;999.90;;;33.20;99.90;;;;;;4993207;28;21124;-64
2021/06/19 12:04:24;;;;;;;1999.90;999.90;;;33.10;99.90;;;;;;4992839;28;20710;-64